sensor_id;sensor_type;location;lat;lon;timestamp;P1;durP1;ratioP1;P2;durP2;ratioP2
71423;SDS011;59240;51.370;-0.486;2024-03-08T00:00:38;40.42;;;17.02;;
71423;SDS011;59240;51.370;-0.486;2024-03-08T00:05:36;43.20;;;17.52;;
71423;SDS011;59240;51.370;-0.486;2024-03-08T00:10:35;40.33;;;16.15;;
71423;SDS011;59240;51.370;-0.486;2024-03-08T00:15:32;44.58;;;16.95;;
71423;SDS011;59240;51.370;-0.486;2024-03-08T00:20:29;41.60;;;16.42;;
71423;SDS011;59240;51.370;-0.486;2024-03-08T00:25:26;38.78;;;16.73;;
71423;SDS011;59240;51.370;-0.486;2024-03-08T00:30:22;37.40;;;16.10;;
71423;SDS011;59240;51.370;-0.486;2024-03-08T00:35:21;43.13;;;16.95;;
71423;SDS011;59240;51.370;-0.486;2024-03-08T00:40:19;47.17;;;17.52;;
71423;SDS011;59240;51.370;-0.486;2024-03-08T00:45:16;46.83;;;16.77;;
71423;SDS011;59240;51.370;-0.486;2024-03-08T00:50:13;41.15;;;17.02;;
71423;SDS011;59240;51.370;-0.486;2024-03-08T00:55:09;47.67;;;19.10;;
71423;SDS011;59240;51.370;-0.486;2024-03-08T01:00:07;42.42;;;17.08;;
71423;SDS011;59240;51.370;-0.486;2024-03-08T01:05:09;46.65;;;18.30;;
71423;SDS011;59240;51.370;-0.486;2024-03-08T01:10:06;39.60;;;16.77;;
71423;SDS011;59240;51.370;-0.486;2024-03-08T01:15:06;48.05;;;18.08;;
71423;SDS011;59240;51.370;-0.486;2024-03-08T01:20:04;45.17;;;17.58;;
71423;SDS011;59240;51.370;-0.486;2024-03-08T01:25:04;41.42;;;15.35;;
71423;SDS011;59240;51.370;-0.486;2024-03-08T01:30:01;41.60;;;17.67;;
71423;SDS011;59240;51.370;-0.486;2024-03-08T01:34:58;52.88;;;17.98;;
71423;SDS011;59240;51.370;-0.486;2024-03-08T01:39:55;42.47;;;17.58;;
71423;SDS011;59240;51.370;-0.486;2024-03-08T01:44:52;45.20;;;16.80;;
71423;SDS011;59240;51.370;-0.486;2024-03-08T01:49:49;50.40;;;20.05;;
71423;SDS011;59240;51.370;-0.486;2024-03-08T01:54:46;44.38;;;18.58;;
71423;SDS011;59240;51.370;-0.486;2024-03-08T01:59:43;46.50;;;17.77;;
71423;SDS011;59240;51.370;-0.486;2024-03-08T02:04:40;39.50;;;15.73;;
71423;SDS011;59240;51.370;-0.486;2024-03-08T02:09:37;42.08;;;17.40;;
71423;SDS011;59240;51.370;-0.486;2024-03-08T02:14:34;41.65;;;17.17;;
71423;SDS011;59240;51.370;-0.486;2024-03-08T02:19:31;48.70;;;18.58;;
71423;SDS011;59240;51.370;-0.486;2024-03-08T02:24:29;48.38;;;18.85;;
71423;SDS011;59240;51.370;-0.486;2024-03-08T02:29:26;45.15;;;18.80;;
71423;SDS011;59240;51.370;-0.486;2024-03-08T02:34:23;45.10;;;19.15;;
71423;SDS011;59240;51.370;-0.486;2024-03-08T02:39:20;48.88;;;19.38;;
71423;SDS011;59240;51.370;-0.486;2024-03-08T02:44:18;45.05;;;16.23;;
71423;SDS011;59240;51.370;-0.486;2024-03-08T02:49:18;48.65;;;18.58;;
71423;SDS011;59240;51.370;-0.486;2024-03-08T02:54:15;45.15;;;17.15;;
71423;SDS011;59240;51.370;-0.486;2024-03-08T02:59:13;40.58;;;17.05;;
71423;SDS011;59240;51.370;-0.486;2024-03-08T03:04:10;48.63;;;19.67;;
71423;SDS011;59240;51.370;-0.486;2024-03-08T03:09:07;45.55;;;17.67;;
71423;SDS011;59240;51.370;-0.486;2024-03-08T03:14:07;46.88;;;17.25;;
71423;SDS011;59240;51.370;-0.486;2024-03-08T03:19:03;43.17;;;16.63;;
71423;SDS011;59240;51.370;-0.486;2024-03-08T03:24:02;39.95;;;16.70;;
71423;SDS011;59240;51.370;-0.486;2024-03-08T03:29:00;42.28;;;15.77;;
71423;SDS011;59240;51.370;-0.486;2024-03-08T03:33:59;38.25;;;16.42;;
71423;SDS011;59240;51.370;-0.486;2024-03-08T03:39:00;41.80;;;16.25;;
71423;SDS011;59240;51.370;-0.486;2024-03-08T03:44:13;37.90;;;14.82;;
71423;SDS011;59240;51.370;-0.486;2024-03-08T03:49:10;44.08;;;17.00;;
71423;SDS011;59240;51.370;-0.486;2024-03-08T03:54:06;38.40;;;15.50;;
71423;SDS011;59240;51.370;-0.486;2024-03-08T03:59:04;39.42;;;14.60;;
71423;SDS011;59240;51.370;-0.486;2024-03-08T04:04:01;41.00;;;14.38;;
71423;SDS011;59240;51.370;-0.486;2024-03-08T04:08:57;38.40;;;14.48;;
71423;SDS011;59240;51.370;-0.486;2024-03-08T04:13:54;30.98;;;14.63;;
71423;SDS011;59240;51.370;-0.486;2024-03-08T04:18:51;32.97;;;13.18;;
71423;SDS011;59240;51.370;-0.486;2024-03-08T04:23:49;39.80;;;15.80;;
71423;SDS011;59240;51.370;-0.486;2024-03-08T04:28:45;34.33;;;15.63;;
71423;SDS011;59240;51.370;-0.486;2024-03-08T04:33:42;33.15;;;13.75;;
71423;SDS011;59240;51.370;-0.486;2024-03-08T04:38:41;30.55;;;13.85;;
71423;SDS011;59240;51.370;-0.486;2024-03-08T04:43:38;36.00;;;14.02;;
71423;SDS011;59240;51.370;-0.486;2024-03-08T04:48:35;33.17;;;13.20;;
71423;SDS011;59240;51.370;-0.486;2024-03-08T04:53:33;30.20;;;13.70;;
71423;SDS011;59240;51.370;-0.486;2024-03-08T04:58:31;32.08;;;13.45;;
71423;SDS011;59240;51.370;-0.486;2024-03-08T05:03:28;31.20;;;12.70;;
71423;SDS011;59240;51.370;-0.486;2024-03-08T05:08:26;38.45;;;15.18;;
71423;SDS011;59240;51.370;-0.486;2024-03-08T05:13:24;25.15;;;11.23;;
71423;SDS011;59240;51.370;-0.486;2024-03-08T05:18:21;33.88;;;13.57;;
71423;SDS011;59240;51.370;-0.486;2024-03-08T05:23:18;26.63;;;12.43;;
71423;SDS011;59240;51.370;-0.486;2024-03-08T05:28:16;40.47;;;14.63;;
71423;SDS011;59240;51.370;-0.486;2024-03-08T05:33:13;29.10;;;14.00;;
71423;SDS011;59240;51.370;-0.486;2024-03-08T05:38:11;36.20;;;13.23;;
71423;SDS011;59240;51.370;-0.486;2024-03-08T05:43:09;30.05;;;14.48;;
71423;SDS011;59240;51.370;-0.486;2024-03-08T05:48:07;31.95;;;11.90;;
71423;SDS011;59240;51.370;-0.486;2024-03-08T05:53:04;31.63;;;13.50;;
71423;SDS011;59240;51.370;-0.486;2024-03-08T05:58:06;35.30;;;13.18;;
71423;SDS011;59240;51.370;-0.486;2024-03-08T06:03:04;31.10;;;12.70;;
71423;SDS011;59240;51.370;-0.486;2024-03-08T06:08:01;27.20;;;12.65;;
71423;SDS011;59240;51.370;-0.486;2024-03-08T06:12:58;31.13;;;12.60;;
71423;SDS011;59240;51.370;-0.486;2024-03-08T06:17:56;31.88;;;13.07;;
71423;SDS011;59240;51.370;-0.486;2024-03-08T06:22:53;27.90;;;11.93;;
71423;SDS011;59240;51.370;-0.486;2024-03-08T06:27:50;26.73;;;11.38;;
71423;SDS011;59240;51.370;-0.486;2024-03-08T06:32:48;35.22;;;13.93;;
71423;SDS011;59240;51.370;-0.486;2024-03-08T06:37:45;28.60;;;14.93;;
71423;SDS011;59240;51.370;-0.486;2024-03-08T06:42:42;28.10;;;13.10;;
71423;SDS011;59240;51.370;-0.486;2024-03-08T06:47:39;32.90;;;13.90;;
71423;SDS011;59240;51.370;-0.486;2024-03-08T06:52:38;29.08;;;12.50;;
71423;SDS011;59240;51.370;-0.486;2024-03-08T06:57:35;25.95;;;12.38;;
71423;SDS011;59240;51.370;-0.486;2024-03-08T07:02:32;35.33;;;12.32;;
71423;SDS011;59240;51.370;-0.486;2024-03-08T07:07:31;36.03;;;13.80;;
71423;SDS011;59240;51.370;-0.486;2024-03-08T07:12:28;35.08;;;13.95;;
71423;SDS011;59240;51.370;-0.486;2024-03-08T07:17:25;22.38;;;8.70;;
71423;SDS011;59240;51.370;-0.486;2024-03-08T07:22:22;28.92;;;11.52;;
71423;SDS011;59240;51.370;-0.486;2024-03-08T07:27:20;32.00;;;15.10;;
71423;SDS011;59240;51.370;-0.486;2024-03-08T07:32:17;37.92;;;15.65;;
71423;SDS011;59240;51.370;-0.486;2024-03-08T07:37:21;45.47;;;15.80;;
71423;SDS011;59240;51.370;-0.486;2024-03-08T07:42:18;34.35;;;14.63;;
71423;SDS011;59240;51.370;-0.486;2024-03-08T07:47:16;33.15;;;13.98;;
71423;SDS011;59240;51.370;-0.486;2024-03-08T07:52:18;33.92;;;16.10;;
71423;SDS011;59240;51.370;-0.486;2024-03-08T07:57:14;36.55;;;16.95;;
71423;SDS011;59240;51.370;-0.486;2024-03-08T08:02:11;36.58;;;14.60;;
71423;SDS011;59240;51.370;-0.486;2024-03-08T08:07:08;39.90;;;14.50;;
71423;SDS011;59240;51.370;-0.486;2024-03-08T08:12:05;31.23;;;14.50;;
71423;SDS011;59240;51.370;-0.486;2024-03-08T08:17:04;34.72;;;14.50;;
71423;SDS011;59240;51.370;-0.486;2024-03-08T08:22:02;41.53;;;15.20;;
71423;SDS011;59240;51.370;-0.486;2024-03-08T08:26:59;26.95;;;12.40;;
71423;SDS011;59240;51.370;-0.486;2024-03-08T08:32:00;34.55;;;14.15;;
71423;SDS011;59240;51.370;-0.486;2024-03-08T08:36:59;37.92;;;14.55;;
71423;SDS011;59240;51.370;-0.486;2024-03-08T08:41:56;31.90;;;11.98;;
71423;SDS011;59240;51.370;-0.486;2024-03-08T08:46:52;32.95;;;13.85;;
71423;SDS011;59240;51.370;-0.486;2024-03-08T08:51:58;38.30;;;15.30;;
71423;SDS011;59240;51.370;-0.486;2024-03-08T08:57:04;32.38;;;13.82;;
71423;SDS011;59240;51.370;-0.486;2024-03-08T09:02:04;32.45;;;15.05;;
71423;SDS011;59240;51.370;-0.486;2024-03-08T09:07:01;32.63;;;14.60;;
71423;SDS011;59240;51.370;-0.486;2024-03-08T09:11:59;31.48;;;13.25;;
71423;SDS011;59240;51.370;-0.486;2024-03-08T09:16:55;32.15;;;12.50;;
71423;SDS011;59240;51.370;-0.486;2024-03-08T09:21:53;34.92;;;15.27;;
71423;SDS011;59240;51.370;-0.486;2024-03-08T09:26:49;32.15;;;13.73;;
71423;SDS011;59240;51.370;-0.486;2024-03-08T09:31:46;29.52;;;12.80;;
71423;SDS011;59240;51.370;-0.486;2024-03-08T09:36:43;27.02;;;12.45;;
71423;SDS011;59240;51.370;-0.486;2024-03-08T09:41:40;32.08;;;13.77;;
71423;SDS011;59240;51.370;-0.486;2024-03-08T09:46:37;22.58;;;11.20;;
71423;SDS011;59240;51.370;-0.486;2024-03-08T09:51:35;24.92;;;11.27;;
71423;SDS011;59240;51.370;-0.486;2024-03-08T09:56:33;23.48;;;11.65;;
71423;SDS011;59240;51.370;-0.486;2024-03-08T10:01:37;26.23;;;12.45;;
71423;SDS011;59240;51.370;-0.486;2024-03-08T10:06:35;33.08;;;13.73;;
71423;SDS011;59240;51.370;-0.486;2024-03-08T10:11:33;24.65;;;11.50;;
71423;SDS011;59240;51.370;-0.486;2024-03-08T10:16:31;20.67;;;11.07;;
71423;SDS011;59240;51.370;-0.486;2024-03-08T10:21:28;24.20;;;10.82;;
71423;SDS011;59240;51.370;-0.486;2024-03-08T10:26:25;25.83;;;11.88;;
71423;SDS011;59240;51.370;-0.486;2024-03-08T10:31:22;30.60;;;12.88;;
71423;SDS011;59240;51.370;-0.486;2024-03-08T10:36:19;26.58;;;13.02;;
71423;SDS011;59240;51.370;-0.486;2024-03-08T10:41:16;24.85;;;12.27;;
71423;SDS011;59240;51.370;-0.486;2024-03-08T10:46:18;19.33;;;9.80;;
71423;SDS011;59240;51.370;-0.486;2024-03-08T10:51:36;25.67;;;12.30;;
71423;SDS011;59240;51.370;-0.486;2024-03-08T10:56:35;29.48;;;12.80;;
71423;SDS011;59240;51.370;-0.486;2024-03-08T11:01:31;25.52;;;11.23;;
71423;SDS011;59240;51.370;-0.486;2024-03-08T11:11:34;22.42;;;10.48;;
71423;SDS011;59240;51.370;-0.486;2024-03-08T11:21:29;25.20;;;9.20;;
71423;SDS011;59240;51.370;-0.486;2024-03-08T11:26:28;19.13;;;9.98;;
71423;SDS011;59240;51.370;-0.486;2024-03-08T11:31:27;21.13;;;9.00;;
71423;SDS011;59240;51.370;-0.486;2024-03-08T11:36:25;21.67;;;9.57;;
71423;SDS011;59240;51.370;-0.486;2024-03-08T11:41:22;12.82;;;6.78;;
71423;SDS011;59240;51.370;-0.486;2024-03-08T11:46:20;19.85;;;7.60;;
71423;SDS011;59240;51.370;-0.486;2024-03-08T11:51:17;19.63;;;9.82;;
71423;SDS011;59240;51.370;-0.486;2024-03-08T11:56:15;19.25;;;8.75;;
71423;SDS011;59240;51.370;-0.486;2024-03-08T12:01:13;19.23;;;8.43;;
71423;SDS011;59240;51.370;-0.486;2024-03-08T12:06:10;22.92;;;10.40;;
71423;SDS011;59240;51.370;-0.486;2024-03-08T12:11:10;21.70;;;10.23;;
71423;SDS011;59240;51.370;-0.486;2024-03-08T12:16:08;20.38;;;10.40;;
71423;SDS011;59240;51.370;-0.486;2024-03-08T12:21:09;20.83;;;10.30;;
71423;SDS011;59240;51.370;-0.486;2024-03-08T12:26:09;18.17;;;9.60;;
71423;SDS011;59240;51.370;-0.486;2024-03-08T12:31:13;18.90;;;10.15;;
71423;SDS011;59240;51.370;-0.486;2024-03-08T12:36:14;20.92;;;10.02;;
71423;SDS011;59240;51.370;-0.486;2024-03-08T12:41:12;21.45;;;9.80;;
71423;SDS011;59240;51.370;-0.486;2024-03-08T12:46:09;20.13;;;9.88;;
71423;SDS011;59240;51.370;-0.486;2024-03-08T12:51:06;16.73;;;8.38;;
71423;SDS011;59240;51.370;-0.486;2024-03-08T12:56:05;17.83;;;9.32;;
71423;SDS011;59240;51.370;-0.486;2024-03-08T13:01:04;19.02;;;10.55;;
71423;SDS011;59240;51.370;-0.486;2024-03-08T13:06:06;19.13;;;9.93;;
71423;SDS011;59240;51.370;-0.486;2024-03-08T13:11:05;16.35;;;8.45;;
71423;SDS011;59240;51.370;-0.486;2024-03-08T13:16:03;22.48;;;9.75;;
71423;SDS011;59240;51.370;-0.486;2024-03-08T13:21:04;23.48;;;11.25;;
71423;SDS011;59240;51.370;-0.486;2024-03-08T13:26:11;20.55;;;10.70;;
71423;SDS011;59240;51.370;-0.486;2024-03-08T13:31:12;20.75;;;10.60;;
71423;SDS011;59240;51.370;-0.486;2024-03-08T13:36:11;30.55;;;12.88;;
71423;SDS011;59240;51.370;-0.486;2024-03-08T13:41:17;23.70;;;11.15;;
71423;SDS011;59240;51.370;-0.486;2024-03-08T13:46:17;27.52;;;13.35;;
71423;SDS011;59240;51.370;-0.486;2024-03-08T13:51:14;20.67;;;10.82;;
71423;SDS011;59240;51.370;-0.486;2024-03-08T13:56:12;25.98;;;14.07;;
71423;SDS011;59240;51.370;-0.486;2024-03-08T14:01:09;17.55;;;9.00;;
71423;SDS011;59240;51.370;-0.486;2024-03-08T14:06:09;27.00;;;12.50;;
71423;SDS011;59240;51.370;-0.486;2024-03-08T14:11:20;21.88;;;12.05;;
71423;SDS011;59240;51.370;-0.486;2024-03-08T14:16:20;25.98;;;11.93;;
71423;SDS011;59240;51.370;-0.486;2024-03-08T14:21:17;24.33;;;12.32;;
71423;SDS011;59240;51.370;-0.486;2024-03-08T14:26:14;23.67;;;12.18;;
71423;SDS011;59240;51.370;-0.486;2024-03-08T14:31:12;24.50;;;12.35;;
71423;SDS011;59240;51.370;-0.486;2024-03-08T14:36:09;25.45;;;10.77;;
71423;SDS011;59240;51.370;-0.486;2024-03-08T14:41:11;24.17;;;12.45;;
71423;SDS011;59240;51.370;-0.486;2024-03-08T14:46:07;22.05;;;10.93;;
71423;SDS011;59240;51.370;-0.486;2024-03-08T14:51:05;25.60;;;12.43;;
71423;SDS011;59240;51.370;-0.486;2024-03-08T14:56:05;26.70;;;13.00;;
71423;SDS011;59240;51.370;-0.486;2024-03-08T15:01:04;23.05;;;11.13;;
71423;SDS011;59240;51.370;-0.486;2024-03-08T15:06:04;24.10;;;12.20;;
71423;SDS011;59240;51.370;-0.486;2024-03-08T15:11:05;20.45;;;11.18;;
71423;SDS011;59240;51.370;-0.486;2024-03-08T15:16:03;29.77;;;14.55;;
71423;SDS011;59240;51.370;-0.486;2024-03-08T15:21:06;29.23;;;14.70;;
71423;SDS011;59240;51.370;-0.486;2024-03-08T15:26:03;29.67;;;14.45;;
71423;SDS011;59240;51.370;-0.486;2024-03-08T15:31:04;28.90;;;13.82;;
71423;SDS011;59240;51.370;-0.486;2024-03-08T15:36:03;29.20;;;14.07;;
71423;SDS011;59240;51.370;-0.486;2024-03-08T15:41:05;32.35;;;16.52;;
71423;SDS011;59240;51.370;-0.486;2024-03-08T15:46:07;26.27;;;14.93;;
71423;SDS011;59240;51.370;-0.486;2024-03-08T15:51:05;26.85;;;15.25;;
71423;SDS011;59240;51.370;-0.486;2024-03-08T15:56:03;22.30;;;11.80;;
71423;SDS011;59240;51.370;-0.486;2024-03-08T16:01:04;25.85;;;13.70;;
71423;SDS011;59240;51.370;-0.486;2024-03-08T16:06:04;30.85;;;15.55;;
71423;SDS011;59240;51.370;-0.486;2024-03-08T16:11:03;27.02;;;14.40;;
71423;SDS011;59240;51.370;-0.486;2024-03-08T16:16:03;31.38;;;15.93;;
71423;SDS011;59240;51.370;-0.486;2024-03-08T16:21:00;31.05;;;14.25;;
71423;SDS011;59240;51.370;-0.486;2024-03-08T16:25:59;24.30;;;11.15;;
71423;SDS011;59240;51.370;-0.486;2024-03-08T16:30:56;31.25;;;15.15;;
71423;SDS011;59240;51.370;-0.486;2024-03-08T16:35:55;23.80;;;12.32;;
71423;SDS011;59240;51.370;-0.486;2024-03-08T16:40:53;33.45;;;14.48;;
71423;SDS011;59240;51.370;-0.486;2024-03-08T16:45:51;31.63;;;13.85;;
71423;SDS011;59240;51.370;-0.486;2024-03-08T16:50:50;24.10;;;12.88;;
71423;SDS011;59240;51.370;-0.486;2024-03-08T16:55:51;26.52;;;13.63;;
71423;SDS011;59240;51.370;-0.486;2024-03-08T17:00:49;26.83;;;14.25;;
71423;SDS011;59240;51.370;-0.486;2024-03-08T17:05:46;24.35;;;11.57;;
71423;SDS011;59240;51.370;-0.486;2024-03-08T17:10:51;23.38;;;11.10;;
71423;SDS011;59240;51.370;-0.486;2024-03-08T17:15:49;29.77;;;15.02;;
71423;SDS011;59240;51.370;-0.486;2024-03-08T17:20:46;25.33;;;11.50;;
71423;SDS011;59240;51.370;-0.486;2024-03-08T17:25:43;29.10;;;13.55;;
71423;SDS011;59240;51.370;-0.486;2024-03-08T17:30:41;33.13;;;14.75;;
71423;SDS011;59240;51.370;-0.486;2024-03-08T17:35:41;19.17;;;9.30;;
71423;SDS011;59240;51.370;-0.486;2024-03-08T17:40:38;24.52;;;11.55;;
71423;SDS011;59240;51.370;-0.486;2024-03-08T17:45:38;30.33;;;13.77;;
71423;SDS011;59240;51.370;-0.486;2024-03-08T17:50:40;29.42;;;14.25;;
71423;SDS011;59240;51.370;-0.486;2024-03-08T17:55:38;31.27;;;15.43;;
71423;SDS011;59240;51.370;-0.486;2024-03-08T18:00:38;31.00;;;13.90;;
71423;SDS011;59240;51.370;-0.486;2024-03-08T18:05:37;30.38;;;14.23;;
71423;SDS011;59240;51.370;-0.486;2024-03-08T18:10:35;26.92;;;12.85;;
71423;SDS011;59240;51.370;-0.486;2024-03-08T18:15:32;28.75;;;13.65;;
71423;SDS011;59240;51.370;-0.486;2024-03-08T18:20:31;33.35;;;14.27;;
71423;SDS011;59240;51.370;-0.486;2024-03-08T18:25:32;32.38;;;14.32;;
71423;SDS011;59240;51.370;-0.486;2024-03-08T18:30:30;24.83;;;13.02;;
71423;SDS011;59240;51.370;-0.486;2024-03-08T18:35:27;30.17;;;14.00;;
71423;SDS011;59240;51.370;-0.486;2024-03-08T18:40:24;28.17;;;14.30;;
71423;SDS011;59240;51.370;-0.486;2024-03-08T18:45:22;32.35;;;15.82;;
71423;SDS011;59240;51.370;-0.486;2024-03-08T18:50:21;27.77;;;13.98;;
71423;SDS011;59240;51.370;-0.486;2024-03-08T18:55:25;29.17;;;14.45;;
71423;SDS011;59240;51.370;-0.486;2024-03-08T19:00:25;36.55;;;13.25;;
71423;SDS011;59240;51.370;-0.486;2024-03-08T19:05:35;34.30;;;14.50;;
71423;SDS011;59240;51.370;-0.486;2024-03-08T19:10:32;31.55;;;13.60;;
71423;SDS011;59240;51.370;-0.486;2024-03-08T19:15:29;33.80;;;12.50;;
71423;SDS011;59240;51.370;-0.486;2024-03-08T19:20:30;28.50;;;14.25;;
71423;SDS011;59240;51.370;-0.486;2024-03-08T19:25:31;35.85;;;14.77;;
71423;SDS011;59240;51.370;-0.486;2024-03-08T19:30:29;31.02;;;12.52;;
71423;SDS011;59240;51.370;-0.486;2024-03-08T19:35:28;31.42;;;14.48;;
71423;SDS011;59240;51.370;-0.486;2024-03-08T19:40:29;27.05;;;12.52;;
71423;SDS011;59240;51.370;-0.486;2024-03-08T19:45:29;28.75;;;12.02;;
71423;SDS011;59240;51.370;-0.486;2024-03-08T19:50:27;34.92;;;14.50;;
71423;SDS011;59240;51.370;-0.486;2024-03-08T19:55:25;30.65;;;13.02;;
71423;SDS011;59240;51.370;-0.486;2024-03-08T20:00:21;28.85;;;13.35;;
71423;SDS011;59240;51.370;-0.486;2024-03-08T20:05:28;32.17;;;14.18;;
71423;SDS011;59240;51.370;-0.486;2024-03-08T20:10:26;27.92;;;13.07;;
71423;SDS011;59240;51.370;-0.486;2024-03-08T20:15:25;18.33;;;9.27;;
71423;SDS011;59240;51.370;-0.486;2024-03-08T20:20:22;32.92;;;13.35;;
71423;SDS011;59240;51.370;-0.486;2024-03-08T20:25:19;33.70;;;14.07;;
71423;SDS011;59240;51.370;-0.486;2024-03-08T20:30:18;30.98;;;13.27;;
71423;SDS011;59240;51.370;-0.486;2024-03-08T20:35:19;32.50;;;13.15;;
71423;SDS011;59240;51.370;-0.486;2024-03-08T20:40:17;31.85;;;13.07;;
71423;SDS011;59240;51.370;-0.486;2024-03-08T20:45:23;27.80;;;13.35;;
71423;SDS011;59240;51.370;-0.486;2024-03-08T20:50:22;33.45;;;14.15;;
71423;SDS011;59240;51.370;-0.486;2024-03-08T20:55:22;28.63;;;13.70;;
71423;SDS011;59240;51.370;-0.486;2024-03-08T21:00:20;31.92;;;11.95;;
71423;SDS011;59240;51.370;-0.486;2024-03-08T21:05:37;37.05;;;13.68;;
71423;SDS011;59240;51.370;-0.486;2024-03-08T21:10:35;26.48;;;12.13;;
71423;SDS011;59240;51.370;-0.486;2024-03-08T21:15:32;31.77;;;13.90;;
71423;SDS011;59240;51.370;-0.486;2024-03-08T21:20:29;31.75;;;12.05;;
71423;SDS011;59240;51.370;-0.486;2024-03-08T21:25:26;32.33;;;13.32;;
71423;SDS011;59240;51.370;-0.486;2024-03-08T21:30:23;30.02;;;12.30;;
71423;SDS011;59240;51.370;-0.486;2024-03-08T21:35:24;35.97;;;15.30;;
71423;SDS011;59240;51.370;-0.486;2024-03-08T21:40:21;28.75;;;11.88;;
71423;SDS011;59240;51.370;-0.486;2024-03-08T21:45:19;32.80;;;13.10;;
71423;SDS011;59240;51.370;-0.486;2024-03-08T21:50:19;32.95;;;11.52;;
71423;SDS011;59240;51.370;-0.486;2024-03-08T21:55:16;31.83;;;12.98;;
71423;SDS011;59240;51.370;-0.486;2024-03-08T22:00:14;34.05;;;14.15;;
71423;SDS011;59240;51.370;-0.486;2024-03-08T22:05:14;29.40;;;12.82;;
71423;SDS011;59240;51.370;-0.486;2024-03-08T22:10:17;33.25;;;14.65;;
71423;SDS011;59240;51.370;-0.486;2024-03-08T22:15:24;32.13;;;13.85;;
71423;SDS011;59240;51.370;-0.486;2024-03-08T22:20:21;31.85;;;13.00;;
71423;SDS011;59240;51.370;-0.486;2024-03-08T22:25:23;32.88;;;13.70;;
71423;SDS011;59240;51.370;-0.486;2024-03-08T22:30:20;26.75;;;11.93;;
71423;SDS011;59240;51.370;-0.486;2024-03-08T22:35:20;31.02;;;13.73;;
71423;SDS011;59240;51.370;-0.486;2024-03-08T22:40:22;31.80;;;12.75;;
71423;SDS011;59240;51.370;-0.486;2024-03-08T22:45:24;31.25;;;12.18;;
71423;SDS011;59240;51.370;-0.486;2024-03-08T22:50:21;30.92;;;10.43;;
71423;SDS011;59240;51.370;-0.486;2024-03-08T22:55:22;31.83;;;13.60;;
71423;SDS011;59240;51.370;-0.486;2024-03-08T23:00:20;16.75;;;8.50;;
71423;SDS011;59240;51.370;-0.486;2024-03-08T23:05:20;30.27;;;12.15;;
71423;SDS011;59240;51.370;-0.486;2024-03-08T23:10:20;28.23;;;11.65;;
71423;SDS011;59240;51.370;-0.486;2024-03-08T23:15:19;30.23;;;12.57;;
71423;SDS011;59240;51.370;-0.486;2024-03-08T23:20:20;33.67;;;12.07;;
71423;SDS011;59240;51.370;-0.486;2024-03-08T23:25:18;29.75;;;11.40;;
71423;SDS011;59240;51.370;-0.486;2024-03-08T23:30:20;29.05;;;10.90;;
71423;SDS011;59240;51.370;-0.486;2024-03-08T23:35:22;30.08;;;12.18;;
71423;SDS011;59240;51.370;-0.486;2024-03-08T23:40:19;33.00;;;13.10;;
71423;SDS011;59240;51.370;-0.486;2024-03-08T23:45:17;31.45;;;13.00;;
71423;SDS011;59240;51.370;-0.486;2024-03-08T23:50:17;37.53;;;12.95;;
71423;SDS011;59240;51.370;-0.486;2024-03-08T23:55:22;22.25;;;10.73;;
